createdAt,value
2022-12-31T00:01:04.302Z,92.77
2022-12-31T00:02:26.213Z,92.62
2022-12-31T00:03:48.209Z,92.96
2022-12-31T00:05:10.361Z,93.43
2022-12-31T00:06:36.423Z,92.43
2022-12-31T00:07:59.174Z,92.82
2022-12-31T00:09:21.258Z,92.76
2022-12-31T00:10:43.061Z,92.60
2022-12-31T00:12:05.218Z,92.29
2022-12-31T00:13:26.772Z,93.31
2022-12-31T00:14:48.949Z,92.27
2022-12-31T00:16:13.602Z,92.43
2022-12-31T00:17:35.188Z,92.82
2022-12-31T00:19:01.930Z,92.33
2022-12-31T00:20:23.651Z,92.00
2022-12-31T00:21:45.415Z,92.72
2022-12-31T00:23:07.994Z,92.73
2022-12-31T00:24:31.166Z,91.87
2022-12-31T00:25:53.270Z,92.02
2022-12-31T00:27:15.100Z,91.79
2022-12-31T00:28:37.889Z,91.46
2022-12-31T00:30:04.217Z,92.06
2022-12-31T00:31:31.830Z,92.05
2022-12-31T00:32:53.857Z,92.37
2022-12-31T00:34:15.400Z,91.55
2022-12-31T00:35:36.980Z,91.50
2022-12-31T00:37:01.938Z,91.42
2022-12-31T00:38:23.686Z,91.88
2022-12-31T00:39:45.406Z,91.73
2022-12-31T00:41:08.886Z,91.77
2022-12-31T00:42:30.954Z,91.76
2022-12-31T00:43:53.081Z,92.26
2022-12-31T00:45:14.789Z,91.31
2022-12-31T00:47:57.214Z,91.82
2022-12-31T00:49:19.085Z,91.36
2022-12-31T00:50:40.744Z,91.35
2022-12-31T00:52:02.684Z,91.30
2022-12-31T00:53:25.446Z,92.47
2022-12-31T00:54:47.167Z,91.72
2022-12-31T00:56:14.640Z,91.72
2022-12-31T00:57:36.396Z,92.12
2022-12-31T00:58:59.506Z,91.46
2022-12-31T01:00:21.173Z,91.42
2022-12-31T01:01:43.685Z,91.35
2022-12-31T01:03:06.114Z,91.75
2022-12-31T01:04:27.998Z,92.39
2022-12-31T01:05:50.457Z,92.31
2022-12-31T01:07:12.463Z,91.82
2022-12-31T01:08:34.616Z,91.61
2022-12-31T01:09:56.390Z,92.06
2022-12-31T01:11:19.193Z,90.94
2022-12-31T01:12:41.199Z,91.06
2022-12-31T01:14:06.094Z,91.07
2022-12-31T01:15:28.101Z,91.64
2022-12-31T01:16:55.288Z,91.53
2022-12-31T01:18:17.167Z,90.99
2022-12-31T01:19:39.113Z,91.83
2022-12-31T01:21:04.070Z,91.22
2022-12-31T01:22:25.884Z,91.71
2022-12-31T01:23:48.401Z,91.22
2022-12-31T01:25:10.380Z,91.16
2022-12-31T01:26:32.533Z,91.22
2022-12-31T01:27:54.707Z,91.05
2022-12-31T01:29:17.036Z,90.96
2022-12-31T01:30:42.765Z,91.99
2022-12-31T01:32:05.384Z,92.07
2022-12-31T01:33:27.336Z,92.00
2022-12-31T01:34:49.141Z,91.75
2022-12-31T01:36:14.229Z,91.50
2022-12-31T01:37:35.943Z,91.44
2022-12-31T01:38:59.936Z,91.26
2022-12-31T01:40:21.502Z,91.07
2022-12-31T01:41:47.176Z,91.47
2022-12-31T01:43:20.219Z,92.10
2022-12-31T01:44:47.445Z,91.79
2022-12-31T01:46:11.593Z,90.91
2022-12-31T01:47:50.028Z,91.26
2022-12-31T01:49:17.513Z,91.50
2022-12-31T01:50:41.018Z,91.98
2022-12-31T01:52:27.325Z,91.40
2022-12-31T01:53:50.182Z,91.15
2022-12-31T01:55:30.463Z,91.58
2022-12-31T01:56:55.053Z,91.02
2022-12-31T01:58:31.431Z,91.16
2022-12-31T01:59:55.608Z,91.04
2022-12-31T02:01:28.116Z,91.31
2022-12-31T02:02:50.034Z,91.21
2022-12-31T02:04:13.733Z,91.08
2022-12-31T02:05:53.703Z,91.77
2022-12-31T02:07:15.564Z,91.34
2022-12-31T02:08:41.961Z,91.42
2022-12-31T02:10:04.325Z,90.93
2022-12-31T02:11:33.009Z,91.28
2022-12-31T02:12:55.431Z,90.69
2022-12-31T02:14:29.513Z,90.78
2022-12-31T02:16:15.998Z,90.88
2022-12-31T02:18:01.680Z,91.19
2022-12-31T02:19:32.716Z,91.28
2022-12-31T02:21:03.553Z,91.84
2022-12-31T02:22:25.209Z,91.67
2022-12-31T02:24:02.356Z,92.12
2022-12-31T02:26:01.296Z,92.75
2022-12-31T02:27:34.847Z,91.99
2022-12-31T02:29:10.860Z,92.43
2022-12-31T02:30:34.672Z,92.57
2022-12-31T02:32:22.580Z,92.79
2022-12-31T02:33:50.509Z,92.57
2022-12-31T02:35:14.723Z,93.27
2022-12-31T02:36:42.995Z,92.57
2022-12-31T02:38:30.131Z,93.23
2022-12-31T02:39:52.557Z,93.02
2022-12-31T02:41:36.207Z,92.45
2022-12-31T02:42:57.834Z,92.89
2022-12-31T02:44:33.178Z,92.48
2022-12-31T02:46:29.940Z,92.50
2022-12-31T02:48:24.873Z,93.10
2022-12-31T02:50:07.647Z,91.79
2022-12-31T02:51:47.791Z,91.71
2022-12-31T02:53:26.258Z,92.00
2022-12-31T02:55:10.183Z,92.39
2022-12-31T02:56:39.853Z,92.14
2022-12-31T02:58:07.814Z,92.35
2022-12-31T03:00:06.428Z,91.62
2022-12-31T03:01:56.215Z,91.49
2022-12-31T03:03:19.909Z,91.97
2022-12-31T03:04:46.105Z,91.62
2022-12-31T03:06:09.787Z,91.50
2022-12-31T03:07:33.085Z,90.96
2022-12-31T03:09:13.144Z,91.53
2022-12-31T03:10:35.612Z,91.79
2022-12-31T03:12:15.859Z,91.55
2022-12-31T03:13:37.360Z,91.73
2022-12-31T03:15:00.153Z,92.11
2022-12-31T03:16:21.971Z,91.72
2022-12-31T03:17:43.735Z,91.72
2022-12-31T03:19:25.820Z,91.35
2022-12-31T03:21:10.138Z,91.25
2022-12-31T03:22:32.815Z,92.02
2022-12-31T03:24:13.170Z,92.25
2022-12-31T03:25:35.756Z,91.91
2022-12-31T03:26:57.543Z,91.25
2022-12-31T03:28:21.977Z,91.41
2022-12-31T03:29:43.779Z,91.62
2022-12-31T03:31:06.585Z,92.09
2022-12-31T03:32:28.224Z,92.06
2022-12-31T03:33:50.248Z,91.86
2022-12-31T03:35:14.073Z,91.79
2022-12-31T03:36:36.053Z,91.39
2022-12-31T03:37:57.969Z,91.58
2022-12-31T03:39:19.762Z,90.92
2022-12-31T03:40:45.095Z,90.88
2022-12-31T03:42:06.891Z,90.62
2022-12-31T03:43:28.851Z,90.57
2022-12-31T03:44:50.524Z,91.39
2022-12-31T03:46:12.319Z,91.36
2022-12-31T03:47:34.907Z,91.75
2022-12-31T03:48:56.380Z,91.12
2022-12-31T03:50:19.385Z,91.76
2022-12-31T03:51:40.904Z,91.37
2022-12-31T03:53:02.918Z,91.87
2022-12-31T03:54:24.667Z,91.33
2022-12-31T03:55:54.084Z,91.17
2022-12-31T03:57:15.917Z,91.49
2022-12-31T03:58:37.930Z,91.87
2022-12-31T03:59:59.825Z,91.63
2022-12-31T04:01:24.332Z,91.46
2022-12-31T04:02:47.560Z,91.40
2022-12-31T04:04:09.541Z,91.99
2022-12-31T04:05:32.425Z,91.34
2022-12-31T04:06:54.346Z,91.07
2022-12-31T04:08:16.133Z,91.13
2022-12-31T04:09:37.921Z,91.47
2022-12-31T04:10:59.976Z,91.43
2022-12-31T04:12:22.004Z,90.86
2022-12-31T04:13:44.093Z,91.26
2022-12-31T04:15:07.642Z,90.90
2022-12-31T04:16:29.698Z,90.91
2022-12-31T04:17:51.725Z,91.40
2022-12-31T04:19:14.649Z,91.36
2022-12-31T04:20:36.585Z,91.96
2022-12-31T04:21:59.103Z,91.44
2022-12-31T04:23:20.815Z,90.57
2022-12-31T04:24:43.649Z,91.09
2022-12-31T04:26:05.471Z,91.31
2022-12-31T04:27:27.413Z,90.79
2022-12-31T04:28:49.384Z,91.02
2022-12-31T04:30:13.124Z,90.89
2022-12-31T04:31:35.187Z,91.61
2022-12-31T04:32:57.285Z,90.74
2022-12-31T04:34:19.166Z,91.22
2022-12-31T04:35:40.988Z,90.92
2022-12-31T04:37:03.534Z,90.84
2022-12-31T04:38:25.370Z,90.96
2022-12-31T04:39:47.118Z,91.25
2022-12-31T04:41:18.480Z,91.04
2022-12-31T04:42:40.105Z,91.49
2022-12-31T04:44:01.901Z,91.26
2022-12-31T04:45:23.909Z,91.02
2022-12-31T04:46:45.787Z,90.98
2022-12-31T04:48:07.496Z,90.76
2022-12-31T04:49:29.449Z,90.76
2022-12-31T04:50:51.586Z,90.75
2022-12-31T04:52:13.329Z,91.07
2022-12-31T04:53:35.138Z,91.36
2022-12-31T04:54:56.782Z,90.88
2022-12-31T04:56:20.530Z,91.01
2022-12-31T04:57:42.417Z,90.92
2022-12-31T04:59:05.576Z,91.05
2022-12-31T05:00:27.294Z,91.02
2022-12-31T05:01:49.507Z,91.08
2022-12-31T05:03:12.205Z,90.98
2022-12-31T05:04:34.184Z,90.13
2022-12-31T05:06:08.204Z,90.12
2022-12-31T05:07:30.199Z,89.69
2022-12-31T05:08:52.281Z,90.21
2022-12-31T05:10:14.052Z,90.50
2022-12-31T05:11:35.879Z,90.11
2022-12-31T05:12:57.658Z,90.60
2022-12-31T05:14:20.099Z,91.06
2022-12-31T05:15:42.675Z,92.02
2022-12-31T05:17:04.314Z,91.80
2022-12-31T05:18:26.112Z,92.52
2022-12-31T05:19:47.917Z,93.29
2022-12-31T05:21:15.764Z,93.63
2022-12-31T05:22:37.839Z,93.73
2022-12-31T05:23:59.677Z,93.47
2022-12-31T05:25:21.469Z,94.10
2022-12-31T05:26:43.429Z,93.96
2022-12-31T05:28:05.445Z,94.33
2022-12-31T05:29:27.370Z,94.16
2022-12-31T05:30:51.367Z,93.92
2022-12-31T05:32:13.107Z,93.41
2022-12-31T05:33:34.917Z,93.24
2022-12-31T05:34:57.928Z,93.69
2022-12-31T05:36:19.732Z,92.99
2022-12-31T05:37:41.998Z,93.10
2022-12-31T05:39:04.101Z,93.55
2022-12-31T05:40:26.294Z,93.49
2022-12-31T05:41:48.341Z,93.32
2022-12-31T05:43:10.097Z,92.33
2022-12-31T05:44:31.660Z,92.73
2022-12-31T05:45:54.159Z,92.01
2022-12-31T05:47:17.072Z,91.87
2022-12-31T05:48:39.179Z,92.38
2022-12-31T05:50:00.685Z,92.03
2022-12-31T05:51:22.356Z,91.29
2022-12-31T05:52:47.708Z,91.13
2022-12-31T05:54:09.949Z,91.39
2022-12-31T05:55:31.728Z,90.75
2022-12-31T05:56:53.570Z,91.31
2022-12-31T05:58:16.872Z,91.48
2022-12-31T05:59:38.456Z,91.82
2022-12-31T06:01:00.448Z,91.41
2022-12-31T06:02:23.010Z,91.69
2022-12-31T06:03:44.919Z,91.26
2022-12-31T06:05:07.398Z,90.79
2022-12-31T06:06:29.043Z,91.26
2022-12-31T06:07:50.680Z,91.19
2022-12-31T06:09:12.672Z,91.19
2022-12-31T06:10:34.637Z,91.34
2022-12-31T06:11:56.420Z,91.31
2022-12-31T06:13:18.290Z,92.10
2022-12-31T06:14:45.436Z,92.16
2022-12-31T06:16:09.394Z,92.38
2022-12-31T06:17:32.530Z,91.62
2022-12-31T06:18:54.936Z,91.76
2022-12-31T06:20:17.846Z,91.27
2022-12-31T06:21:39.613Z,91.78
2022-12-31T06:23:02.576Z,91.17
2022-12-31T06:24:24.654Z,91.49
2022-12-31T06:25:46.152Z,91.47
2022-12-31T06:27:08.138Z,91.51
2022-12-31T06:28:29.933Z,90.95
2022-12-31T06:29:51.902Z,91.53
2022-12-31T06:31:15.100Z,91.21
2022-12-31T06:32:36.898Z,90.56
2022-12-31T06:33:59.162Z,90.81
2022-12-31T06:35:21.060Z,90.49
2022-12-31T06:36:42.548Z,90.63
2022-12-31T06:38:04.280Z,90.41
2022-12-31T06:39:26.412Z,90.56
2022-12-31T06:40:48.222Z,90.18
2022-12-31T06:42:10.009Z,90.99
2022-12-31T06:43:34.138Z,90.23
2022-12-31T06:44:56.157Z,90.75
2022-12-31T06:46:18.853Z,90.30
2022-12-31T06:47:40.988Z,90.00
2022-12-31T06:49:03.131Z,89.99
2022-12-31T06:50:25.123Z,89.55
2022-12-31T06:51:48.796Z,89.14
2022-12-31T06:53:10.380Z,88.94
2022-12-31T06:54:32.509Z,88.71
2022-12-31T06:55:54.937Z,88.72
2022-12-31T06:57:17.181Z,88.45
2022-12-31T06:58:39.438Z,87.88
2022-12-31T07:00:01.613Z,87.55
2022-12-31T07:02:03.807Z,86.70
2022-12-31T07:03:40.949Z,86.17
2022-12-31T07:05:12.487Z,86.87
2022-12-31T07:06:38.153Z,85.93
2022-12-31T07:08:15.794Z,86.23
2022-12-31T07:09:55.424Z,85.19
2022-12-31T07:11:30.343Z,86.12
2022-12-31T07:13:00.886Z,85.23
2022-12-31T07:14:28.372Z,84.80
2022-12-31T07:16:31.684Z,84.48
2022-12-31T07:18:17.690Z,82.46
2022-12-31T07:19:45.268Z,83.29
2022-12-31T07:21:16.450Z,82.60
2022-12-31T07:22:38.844Z,82.48
2022-12-31T07:24:01.195Z,82.03
2022-12-31T07:25:23.623Z,81.40
2022-12-31T07:27:19.364Z,80.85
2022-12-31T07:29:07.898Z,81.13
2022-12-31T07:30:40.719Z,80.44
2022-12-31T07:32:24.376Z,79.79
2022-12-31T07:33:58.152Z,79.99
2022-12-31T07:35:38.066Z,79.32
2022-12-31T07:37:23.351Z,79.01
2022-12-31T07:39:08.707Z,78.52
2022-12-31T07:40:35.289Z,77.42
2022-12-31T07:42:33.079Z,76.79
2022-12-31T07:44:15.206Z,75.78
2022-12-31T07:45:58.248Z,75.56
2022-12-31T07:47:24.365Z,74.85
2022-12-31T07:48:46.733Z,75.03
2022-12-31T07:50:16.174Z,74.85
2022-12-31T07:51:38.169Z,74.76
2022-12-31T07:53:00.360Z,74.15
2022-12-31T07:54:22.522Z,73.10
2022-12-31T07:55:44.607Z,72.13
2022-12-31T07:57:06.532Z,71.83
2022-12-31T07:58:40.614Z,71.39
2022-12-31T08:00:14.185Z,71.34
2022-12-31T08:01:47.176Z,70.43
2022-12-31T08:03:30.677Z,71.33
2022-12-31T08:05:16.627Z,69.57
2022-12-31T08:06:50.775Z,68.05
2022-12-31T08:08:12.418Z,66.82
2022-12-31T08:09:42.919Z,65.76
2022-12-31T08:11:18.570Z,64.21
2022-12-31T08:12:41.317Z,62.96
2022-12-31T08:14:03.916Z,62.46
2022-12-31T08:15:30.364Z,61.86
2022-12-31T08:16:53.053Z,62.04
2022-12-31T08:18:14.720Z,60.88
2022-12-31T08:19:36.494Z,60.68
2022-12-31T08:21:17.932Z,59.71
2022-12-31T08:23:07.953Z,58.48
2022-12-31T08:24:35.898Z,58.17
2022-12-31T08:26:33.204Z,58.18
2022-12-31T08:28:48.571Z,56.46
2022-12-31T08:30:12.990Z,55.03
2022-12-31T08:32:03.529Z,54.33
2022-12-31T08:34:05.773Z,52.75
2022-12-31T08:35:56.376Z,51.61
2022-12-31T08:37:40.956Z,50.78
2022-12-31T08:39:28.487Z,50.37
2022-12-31T08:41:08.750Z,48.80
2022-12-31T08:42:49.027Z,48.01
2022-12-31T08:44:39.197Z,47.42
2022-12-31T08:46:01.703Z,47.47
2022-12-31T08:47:38.716Z,47.14
2022-12-31T08:49:00.998Z,47.48
2022-12-31T08:50:23.397Z,47.47
2022-12-31T08:51:45.565Z,45.03
2022-12-31T08:53:07.772Z,45.38
2022-12-31T08:54:30.124Z,44.45
2022-12-31T08:56:05.135Z,43.59
2022-12-31T08:57:42.291Z,43.35
2022-12-31T08:59:20.768Z,42.48
2022-12-31T09:00:42.798Z,41.45
2022-12-31T09:02:30.471Z,42.33
2022-12-31T09:04:02.831Z,41.67
2022-12-31T09:05:36.800Z,41.62
2022-12-31T09:07:03.959Z,42.52
2022-12-31T09:08:51.238Z,41.49
2022-12-31T09:10:33.041Z,41.82
2022-12-31T09:12:16.261Z,41.46
2022-12-31T09:14:10.152Z,42.29
2022-12-31T09:15:41.527Z,44.02
2022-12-31T09:17:21.637Z,45.56
2022-12-31T09:18:43.751Z,47.68
2022-12-31T09:20:07.007Z,50.16
2022-12-31T09:21:28.827Z,51.09
2022-12-31T09:22:51.788Z,51.80
2022-12-31T09:24:15.336Z,52.77
2022-12-31T09:26:07.881Z,53.96
2022-12-31T09:27:33.336Z,56.00
2022-12-31T09:29:07.027Z,56.47
2022-12-31T09:30:32.423Z,58.20
2022-12-31T09:32:08.154Z,58.65
2022-12-31T09:33:45.269Z,60.49
2022-12-31T09:35:37.187Z,61.02
2022-12-31T09:37:05.433Z,61.52
2022-12-31T09:38:45.192Z,62.32
2022-12-31T09:40:28.375Z,63.14
2022-12-31T09:42:08.333Z,64.08
2022-12-31T09:43:36.227Z,64.14
2022-12-31T09:45:35.584Z,65.00
2022-12-31T09:47:28.317Z,65.55
2022-12-31T09:49:07.315Z,66.26
2022-12-31T09:50:56.550Z,66.46
2022-12-31T09:52:24.245Z,67.75
2022-12-31T09:54:17.720Z,68.15
2022-12-31T09:55:51.499Z,68.43
2022-12-31T09:57:25.475Z,70.37
2022-12-31T09:59:11.061Z,70.50
2022-12-31T10:01:11.079Z,70.89
2022-12-31T10:02:43.677Z,72.08
2022-12-31T10:04:14.607Z,71.24
2022-12-31T10:05:55.227Z,72.37
2022-12-31T10:07:58.508Z,73.43
2022-12-31T10:09:55.807Z,73.92
2022-12-31T10:11:26.810Z,74.26
2022-12-31T10:12:57.356Z,76.10
2022-12-31T10:14:34.177Z,75.88
2022-12-31T10:16:07.788Z,75.83
2022-12-31T10:18:08.554Z,77.28
2022-12-31T10:19:42.007Z,77.00
2022-12-31T10:21:24.917Z,77.94
2022-12-31T10:23:20.327Z,77.53
2022-12-31T10:25:06.352Z,77.87
2022-12-31T10:26:53.215Z,76.44
2022-12-31T10:28:38.033Z,77.15
2022-12-31T10:30:03.777Z,77.53
2022-12-31T10:31:53.878Z,78.23
2022-12-31T10:33:40.999Z,79.47
2022-12-31T10:35:15.355Z,78.84
2022-12-31T10:36:55.747Z,79.38
2022-12-31T10:38:47.821Z,79.43
2022-12-31T10:40:12.375Z,78.73
2022-12-31T10:41:56.705Z,80.09
2022-12-31T10:43:21.471Z,80.70
2022-12-31T10:45:06.192Z,80.83
2022-12-31T10:47:02.953Z,80.71
2022-12-31T10:48:33.400Z,80.42
2022-12-31T10:49:55.114Z,80.33
2022-12-31T10:51:23.594Z,80.08
2022-12-31T10:53:10.136Z,80.32
2022-12-31T10:54:31.740Z,80.24
2022-12-31T10:56:31.242Z,80.32
2022-12-31T10:58:07.925Z,80.29
2022-12-31T10:59:44.524Z,79.74
2022-12-31T11:01:24.429Z,80.19
2022-12-31T11:03:08.053Z,80.43
2022-12-31T11:04:50.864Z,80.32
2022-12-31T11:06:18.173Z,80.69
2022-12-31T11:07:55.705Z,80.67
2022-12-31T11:09:36.085Z,79.96
2022-12-31T11:11:23.441Z,79.86
2022-12-31T11:13:06.857Z,78.93
2022-12-31T11:14:56.698Z,79.31
2022-12-31T11:16:24.571Z,80.03
2022-12-31T11:18:11.466Z,80.46
2022-12-31T11:19:53.506Z,80.33
2022-12-31T11:21:55.642Z,80.50
2022-12-31T11:23:37.111Z,80.48
2022-12-31T11:25:10.958Z,80.83
2022-12-31T11:26:51.220Z,80.78
2022-12-31T11:28:25.027Z,80.60
2022-12-31T11:29:49.985Z,80.36
2022-12-31T11:31:30.671Z,79.50
2022-12-31T11:32:58.479Z,79.70
2022-12-31T11:34:26.631Z,80.11
2022-12-31T11:36:08.339Z,80.10
2022-12-31T11:37:40.585Z,80.11
2022-12-31T11:39:39.967Z,80.66
2022-12-31T11:41:11.704Z,80.50
2022-12-31T11:43:08.703Z,79.61
2022-12-31T11:44:58.228Z,80.01
2022-12-31T11:46:52.631Z,79.27
2022-12-31T11:48:30.135Z,78.65
2022-12-31T11:50:30.442Z,78.31
2022-12-31T11:52:21.769Z,78.17
2022-12-31T11:54:28.724Z,78.30
2022-12-31T11:55:56.720Z,77.82
2022-12-31T11:57:30.236Z,77.63
2022-12-31T11:58:56.325Z,77.99
2022-12-31T12:00:21.053Z,77.85
2022-12-31T12:01:48.375Z,78.80
2022-12-31T12:03:12.289Z,78.91
2022-12-31T12:04:34.031Z,79.17
2022-12-31T12:05:57.797Z,78.64
2022-12-31T12:07:21.528Z,78.46
2022-12-31T12:08:44.598Z,79.35
2022-12-31T12:10:35.991Z,78.56
2022-12-31T12:12:05.325Z,78.67
2022-12-31T12:13:28.812Z,78.90
2022-12-31T12:14:54.140Z,78.95
2022-12-31T12:16:16.295Z,78.64
2022-12-31T12:17:39.354Z,78.68
2022-12-31T12:19:16.735Z,79.33
2022-12-31T12:20:45.261Z,78.23
2022-12-31T12:22:21.036Z,78.46
2022-12-31T12:23:54.614Z,78.94
2022-12-31T12:25:22.760Z,78.66
2022-12-31T12:26:45.619Z,78.60
2022-12-31T12:28:24.313Z,79.01
2022-12-31T12:29:47.442Z,79.10
2022-12-31T12:31:20.836Z,78.75
2022-12-31T12:32:58.947Z,78.86
2022-12-31T12:34:30.764Z,79.11
2022-12-31T12:35:52.670Z,78.98
2022-12-31T12:37:35.506Z,78.15
2022-12-31T12:39:06.070Z,78.37
2022-12-31T12:40:33.655Z,78.07
2022-12-31T12:42:15.910Z,78.08
2022-12-31T12:43:39.071Z,77.59
2022-12-31T12:45:17.825Z,77.35
2022-12-31T12:46:49.192Z,76.92
2022-12-31T12:48:37.084Z,76.35
2022-12-31T12:49:59.776Z,75.70
2022-12-31T12:51:21.223Z,75.87
2022-12-31T12:53:08.688Z,75.56
2022-12-31T12:54:42.427Z,75.83
2022-12-31T12:56:12.554Z,74.33
2022-12-31T12:58:19.056Z,73.88
2022-12-31T13:00:29.805Z,74.64
2022-12-31T13:02:08.542Z,74.08
2022-12-31T13:06:46.799Z,74.20
2022-12-31T13:08:20.358Z,74.20
2022-12-31T13:10:26.645Z,74.29
2022-12-31T13:12:05.420Z,74.23
2022-12-31T13:13:56.467Z,73.30
2022-12-31T13:15:42.383Z,73.79
2022-12-31T13:17:13.382Z,73.83
2022-12-31T13:18:44.173Z,73.74
2022-12-31T13:20:24.103Z,73.43
2022-12-31T13:21:53.146Z,73.54
2022-12-31T13:23:39.422Z,73.57
2022-12-31T13:25:39.821Z,73.43
2022-12-31T13:27:30.623Z,72.57
2022-12-31T13:28:54.553Z,72.50
2022-12-31T13:30:33.526Z,72.51
2022-12-31T13:31:57.819Z,73.11
2022-12-31T13:33:34.308Z,72.55
2022-12-31T13:35:17.858Z,71.75
2022-12-31T13:36:42.462Z,72.34
2022-12-31T13:38:12.349Z,72.08
2022-12-31T13:39:41.618Z,72.61
2022-12-31T13:41:19.183Z,73.19
2022-12-31T13:42:51.895Z,73.73
2022-12-31T13:44:35.768Z,73.03
2022-12-31T13:46:04.752Z,73.25
2022-12-31T13:47:40.840Z,72.82
2022-12-31T13:49:33.739Z,73.44
2022-12-31T13:51:05.993Z,72.94
2022-12-31T13:53:01.221Z,73.46
2022-12-31T13:54:31.560Z,73.33
2022-12-31T13:56:02.145Z,72.40
2022-12-31T13:57:49.431Z,73.36
2022-12-31T13:59:39.624Z,73.26
2022-12-31T14:01:29.408Z,73.62
2022-12-31T14:03:26.319Z,72.56
2022-12-31T14:04:53.196Z,71.07
2022-12-31T14:06:24.759Z,70.82
2022-12-31T14:08:00.482Z,73.40
2022-12-31T14:09:31.855Z,73.78
2022-12-31T14:11:21.715Z,74.15
2022-12-31T14:13:06.361Z,73.22
2022-12-31T14:14:46.202Z,73.43
2022-12-31T14:16:27.545Z,73.74
2022-12-31T14:18:04.251Z,73.72
2022-12-31T14:20:21.166Z,72.05
2022-12-31T14:22:23.295Z,70.86
2022-12-31T14:24:27.592Z,69.92
2022-12-31T14:25:56.113Z,70.78
2022-12-31T14:27:35.123Z,69.85
2022-12-31T14:29:09.695Z,72.00
2022-12-31T14:30:37.148Z,72.42
2022-12-31T14:32:16.905Z,72.82
2022-12-31T14:33:55.896Z,70.56
2022-12-31T14:35:38.742Z,71.72
2022-12-31T14:37:14.395Z,71.59
2022-12-31T14:39:10.120Z,71.40
2022-12-31T14:40:55.718Z,71.47
2022-12-31T14:42:38.871Z,72.32
2022-12-31T14:44:25.583Z,71.24
2022-12-31T14:45:47.073Z,72.09
2022-12-31T14:47:09.145Z,72.30
2022-12-31T14:48:49.447Z,70.35
2022-12-31T14:50:13.473Z,71.02
2022-12-31T14:51:37.344Z,72.50
2022-12-31T14:53:06.311Z,69.99
2022-12-31T14:54:35.329Z,71.34
2022-12-31T14:56:27.698Z,71.97
2022-12-31T14:59:38.711Z,70.74
2022-12-31T15:01:19.335Z,72.23
2022-12-31T15:02:51.396Z,73.43
2022-12-31T15:04:15.875Z,72.55
2022-12-31T15:05:38.496Z,72.05
2022-12-31T15:07:18.626Z,72.59
2022-12-31T15:09:34.742Z,73.08
2022-12-31T15:11:23.840Z,72.45
2022-12-31T15:13:19.113Z,73.00
2022-12-31T15:14:49.663Z,72.76
2022-12-31T15:16:49.567Z,71.20
2022-12-31T15:18:17.281Z,73.43
2022-12-31T15:19:44.716Z,73.35
2022-12-31T15:21:27.577Z,73.70
2022-12-31T15:22:51.104Z,74.06
2022-12-31T15:24:28.191Z,74.43
2022-12-31T15:25:59.177Z,75.37
2022-12-31T15:27:37.911Z,71.75
2022-12-31T15:29:06.106Z,72.84
2022-12-31T15:30:44.127Z,73.82
2022-12-31T15:32:08.127Z,73.79
2022-12-31T15:33:41.815Z,73.98
2022-12-31T15:35:25.936Z,74.30
2022-12-31T15:36:55.069Z,72.75
2022-12-31T15:38:18.849Z,74.78
2022-12-31T15:39:44.503Z,71.77
2022-12-31T15:41:20.401Z,72.74
2022-12-31T15:43:00.247Z,71.75
2022-12-31T15:44:28.534Z,70.04
2022-12-31T15:45:52.392Z,70.63
2022-12-31T15:47:24.719Z,71.10
2022-12-31T15:49:04.958Z,71.81
2022-12-31T15:50:29.371Z,72.60
2022-12-31T15:52:03.608Z,72.57
2022-12-31T15:53:41.690Z,71.19
2022-12-31T15:55:06.468Z,71.25
2022-12-31T15:56:40.921Z,70.96
2022-12-31T15:58:11.207Z,70.42
2022-12-31T15:59:34.013Z,69.94
2022-12-31T16:01:04.569Z,71.03
2022-12-31T16:02:28.089Z,71.30
2022-12-31T16:04:20.853Z,71.10
2022-12-31T16:05:42.696Z,71.30
2022-12-31T16:07:05.866Z,71.81
2022-12-31T16:08:31.779Z,71.47
2022-12-31T16:10:00.245Z,72.37
2022-12-31T16:11:23.483Z,72.77
2022-12-31T16:12:45.652Z,72.74
2022-12-31T16:14:07.708Z,73.10
2022-12-31T16:15:32.919Z,73.20
2022-12-31T16:16:58.178Z,72.76
2022-12-31T16:18:23.000Z,72.85
2022-12-31T16:19:47.190Z,73.03
2022-12-31T16:21:30.098Z,72.63
2022-12-31T16:22:59.093Z,72.67
2022-12-31T16:24:37.446Z,72.78
2022-12-31T16:26:10.104Z,72.23
2022-12-31T16:27:34.579Z,72.35
2022-12-31T16:29:00.230Z,71.95
2022-12-31T16:30:28.104Z,72.83
2022-12-31T16:31:53.251Z,73.28
2022-12-31T16:33:16.004Z,73.61
2022-12-31T16:34:38.641Z,73.78
2022-12-31T16:36:01.699Z,73.23
2022-12-31T16:37:24.204Z,73.29
2022-12-31T16:38:46.101Z,72.96
2022-12-31T16:40:17.514Z,73.74
2022-12-31T16:41:43.584Z,74.05
2022-12-31T16:43:20.402Z,74.29
2022-12-31T16:44:42.593Z,73.93
2022-12-31T16:46:28.609Z,74.96
2022-12-31T16:47:50.343Z,72.35
2022-12-31T16:49:20.769Z,72.70
2022-12-31T16:50:49.482Z,72.68
2022-12-31T16:52:32.236Z,73.50
2022-12-31T16:53:54.562Z,73.38
2022-12-31T16:55:21.869Z,73.82
2022-12-31T16:56:44.816Z,74.36
2022-12-31T16:58:28.273Z,73.42
2022-12-31T16:59:55.797Z,73.12
2022-12-31T17:01:25.695Z,74.01
2022-12-31T17:03:14.147Z,74.63
2022-12-31T17:04:37.760Z,73.86
2022-12-31T17:06:14.776Z,74.57
2022-12-31T17:07:42.371Z,73.94
2022-12-31T17:09:15.076Z,74.11
2022-12-31T17:10:37.361Z,73.36
2022-12-31T17:12:17.650Z,75.03
2022-12-31T17:13:39.673Z,74.43
2022-12-31T17:15:06.394Z,74.33
2022-12-31T17:16:28.630Z,74.13
2022-12-31T17:17:56.389Z,72.80
2022-12-31T17:19:30.116Z,73.02
2022-12-31T17:20:54.433Z,72.80
2022-12-31T17:22:34.250Z,72.85
2022-12-31T17:24:03.714Z,73.38
2022-12-31T17:25:28.783Z,72.95
2022-12-31T17:26:53.026Z,73.08
2022-12-31T17:28:22.963Z,72.90
2022-12-31T17:29:45.025Z,72.71
2022-12-31T17:31:26.513Z,72.54
2022-12-31T17:32:50.177Z,73.23
2022-12-31T17:34:14.737Z,73.74
2022-12-31T17:35:42.951Z,74.57
2022-12-31T17:37:10.463Z,74.99
2022-12-31T17:38:36.020Z,74.92
2022-12-31T17:41:46.456Z,75.31
2022-12-31T17:43:10.765Z,75.36
2022-12-31T17:44:36.042Z,75.36
2022-12-31T17:45:58.193Z,75.66
2022-12-31T17:47:20.084Z,75.38
2022-12-31T17:48:44.015Z,75.83
2022-12-31T17:50:09.989Z,76.14
2022-12-31T17:51:31.802Z,76.45
2022-12-31T17:53:02.943Z,76.09
2022-12-31T17:54:24.668Z,76.49
2022-12-31T17:55:52.114Z,76.17
2022-12-31T17:57:28.019Z,76.45
2022-12-31T17:58:52.701Z,77.48
2022-12-31T18:00:20.647Z,77.52
2022-12-31T18:01:42.647Z,77.94
2022-12-31T18:03:04.778Z,77.97
2022-12-31T18:04:27.197Z,77.93
2022-12-31T18:05:49.210Z,77.72
2022-12-31T18:07:11.465Z,78.38
2022-12-31T18:08:33.432Z,78.38
2022-12-31T18:09:55.143Z,78.54
2022-12-31T18:11:26.157Z,78.83
2022-12-31T18:12:49.257Z,78.72
2022-12-31T18:14:15.538Z,79.04
2022-12-31T18:15:37.436Z,79.41
2022-12-31T18:16:59.063Z,79.59
2022-12-31T18:18:25.943Z,79.47
2022-12-31T18:20:05.145Z,79.46
2022-12-31T18:21:30.179Z,79.53
2022-12-31T18:22:52.529Z,79.19
2022-12-31T18:24:24.265Z,79.54
2022-12-31T18:25:47.702Z,79.59
2022-12-31T18:27:19.945Z,79.44
2022-12-31T18:28:41.640Z,79.70
2022-12-31T18:30:05.785Z,79.82
2022-12-31T18:31:31.041Z,80.15
2022-12-31T18:32:53.786Z,80.60
2022-12-31T18:34:17.046Z,80.61
2022-12-31T18:36:07.662Z,80.71
2022-12-31T18:37:22.567Z,80.26
2022-12-31T18:38:45.020Z,80.64
2022-12-31T18:40:07.414Z,80.63
2022-12-31T18:41:37.831Z,80.92
2022-12-31T18:43:04.739Z,81.05
2022-12-31T18:44:27.321Z,80.08
2022-12-31T18:45:50.370Z,80.89
2022-12-31T18:47:18.276Z,80.60
2022-12-31T18:48:41.555Z,80.87
2022-12-31T18:50:03.153Z,80.47
2022-12-31T18:51:31.777Z,81.08
2022-12-31T18:52:54.032Z,80.34
2022-12-31T18:54:16.494Z,80.45
2022-12-31T18:55:49.792Z,80.60
2022-12-31T18:57:15.662Z,81.34
2022-12-31T18:58:37.530Z,80.85
2022-12-31T19:00:00.714Z,80.59
2022-12-31T19:01:30.064Z,81.23
2022-12-31T19:02:51.934Z,80.97
2022-12-31T19:04:27.045Z,80.73
2022-12-31T19:05:51.354Z,81.02
2022-12-31T19:07:13.523Z,80.88
2022-12-31T19:08:35.124Z,81.49
2022-12-31T19:09:58.636Z,81.87
2022-12-31T19:11:21.563Z,81.53
2022-12-31T19:12:44.471Z,81.70
2022-12-31T19:14:18.701Z,80.76
2022-12-31T19:15:46.328Z,80.84
2022-12-31T19:18:28.804Z,81.66
2022-12-31T19:19:50.684Z,81.57
2022-12-31T19:21:18.551Z,82.30
2022-12-31T19:22:40.321Z,82.71
2022-12-31T19:24:02.144Z,82.38
2022-12-31T19:25:26.786Z,82.08
2022-12-31T19:26:49.484Z,82.39
2022-12-31T19:28:19.728Z,82.16
2022-12-31T19:29:41.544Z,82.26
2022-12-31T19:31:03.471Z,82.51
2022-12-31T19:32:25.380Z,82.78
2022-12-31T19:33:47.309Z,82.53
2022-12-31T19:35:11.533Z,81.89